Time;durP1;ratioP1;P1;durP2;ratioP2;P2;SDS_P1;SDS_P2;PMS_P1;PMS_P2;Temp;Humidity;BMP_temperature;BMP_pressure;BME280_temperature;BME280_humidity;BME280_pressure;Samples;Min_cycle;Max_cycle;Signal;HPM_P1;HPM_P2
2022/05/06 00:00:57;;;;;;;6.97;4.85;;;;;;;9.65;76.77;101470.13;6336513;22;20025;-69
2022/05/06 00:04:00;;;;;;;6.65;4.90;;;;;;;9.69;76.81;101469.13;6337137;22;20045;-69
2022/05/06 00:07:05;;;;;;;11.35;5.05;;;;;;;9.51;77.07;101468.84;6336893;22;20022;-69
2022/05/06 00:10:09;;;;;;;;;;;;;;;9.39;77.26;101471.84;6319124;22;20080;-69
2022/05/06 00:13:13;;;;;;;7.80;5.30;;;;;;;9.32;77.04;101471.19;6337139;22;19915;-69
2022/05/06 00:16:18;;;;;;;;;;;;;;;9.37;77.17;101475.41;6337822;22;20069;-69
2022/05/06 00:19:22;;;;;;;5.70;4.88;;;;;;;9.24;77.53;101474.94;6336047;22;19913;-69
2022/05/06 00:22:26;;;;;;;10.27;4.97;;;;;;;9.20;77.87;101475.94;6337699;22;20041;-69
2022/05/06 00:25:29;;;;;;;6.60;4.97;;;;;;;9.24;77.58;101469.72;6337632;22;20094;-69
2022/05/06 00:28:34;;;;;;;7.57;4.55;;;;;;;9.23;77.09;101473.22;6336905;22;20026;-69
2022/05/06 00:31:38;;;;;;;8.15;5.20;;;;;;;9.21;77.17;101470.66;6318621;22;20027;-69
2022/05/06 00:34:43;;;;;;;6.55;4.75;;;;;;;9.14;77.24;101476.13;6337470;22;20024;-69
2022/05/06 00:37:46;;;;;;;;;;;;;;;9.04;77.61;101479.00;6318739;22;20072;-70
2022/05/06 00:40:51;;;;;;;22.92;5.35;;;;;;;8.97;77.81;101477.50;6319679;22;19928;-69
2022/05/06 00:43:54;;;;;;;7.55;5.22;;;;;;;8.92;77.92;101483.75;6319988;22;20022;-69
2022/05/06 00:46:58;;;;;;;;;;;;;;;8.94;77.77;101481.97;6320470;22;20461;-69
2022/05/06 00:50:03;;;;;;;6.72;4.72;;;;;;;8.91;78.11;101482.91;6339292;22;20395;-69
2022/05/06 00:53:08;;;;;;;7.45;5.00;;;;;;;9.16;76.86;101476.94;6320267;22;20025;-69
2022/05/06 00:56:12;;;;;;;8.55;4.85;;;;;;;8.95;77.59;101489.72;6319888;22;20132;-69
2022/05/06 00:59:16;;;;;;;6.47;5.00;;;;;;;8.80;78.12;101490.19;6338881;22;20057;-69
2022/05/06 01:02:20;;;;;;;7.93;4.88;;;;;;;8.83;77.86;101495.31;6338979;22;20392;-69
2022/05/06 01:05:25;;;;;;;5.55;4.55;;;;;;;8.85;77.40;101491.75;6337975;22;20025;-69
2022/05/06 01:08:29;;;;;;;6.68;4.82;;;;;;;9.01;76.99;101489.53;6320176;22;20380;-69
2022/05/06 01:11:34;;;;;;;7.75;5.30;;;;;;;8.91;76.51;101488.13;6320148;22;20037;-69
2022/05/06 01:14:39;;;;;;;9.77;5.20;;;;;;;8.74;77.17;101492.97;6319715;22;20053;-69
2022/05/06 01:17:58;;;;;;;7.28;5.28;;;;;;;8.57;77.55;101489.09;6319288;22;20018;-69
2022/05/06 01:21:02;;;;;;;;;;;;;;;8.57;77.42;101483.88;6319254;22;20029;-69
2022/05/06 01:24:06;;;;;;;10.48;4.82;;;;;;;8.65;77.36;101490.63;6319819;22;19993;-69
2022/05/06 01:27:22;;;;;;;;;;;;;;;8.50;78.11;101486.72;6320033;22;20021;-69
2022/05/06 01:30:37;;;;;;;5.90;4.80;;;;;;;8.47;77.82;101495.47;6318640;22;19955;-69
2022/05/06 01:33:42;;;;;;;5.88;5.10;;;;;;;8.53;78.17;101495.28;6319751;22;20049;-69
2022/05/06 01:36:48;;;;;;;10.48;5.28;;;;;;;8.49;77.70;101498.91;6338689;22;20068;-69
2022/05/06 01:39:58;;;;;;;9.20;5.00;;;;;;;8.54;77.49;101497.00;6338618;22;20083;-69
2022/05/06 01:43:07;;;;;;;8.07;5.07;;;;;;;8.75;76.81;101497.28;6319405;22;20053;-69
2022/05/06 01:46:14;;;;;;;10.57;4.43;;;;;;;8.38;77.24;101498.31;6319289;22;20038;-69
2022/05/06 01:49:22;;;;;;;7.90;4.88;;;;;;;8.25;78.18;101502.13;6319631;22;20106;-69
2022/05/06 01:52:26;;;;;;;9.70;5.68;;;;;;;8.27;78.08;101500.34;6319228;22;20022;-69
2022/05/06 01:55:31;;;;;;;8.98;5.40;;;;;;;8.13;78.58;101504.16;6318558;22;20024;-69
2022/05/06 01:58:42;;;;;;;10.13;5.30;;;;;;;8.13;78.28;101498.09;6338561;22;20465;-69
2022/05/06 02:01:47;;;;;;;9.38;5.68;;;;;;;8.10;78.01;101501.66;6319477;22;20021;-69
2022/05/06 02:08:22;;;;;;;9.50;5.00;;;;;;;8.09;78.10;101497.31;6319436;22;20412;-69
2022/05/06 02:11:26;;;;;;;6.78;5.05;;;;;;;8.14;77.70;101500.69;6318732;22;20438;-69
2022/05/06 02:14:30;;;;;;;8.57;4.93;;;;;;;7.96;78.32;101501.16;6318242;22;20025;-69
2022/05/06 02:17:52;;;;;;;9.82;5.32;;;;;;;7.98;78.12;101493.31;6337862;22;20025;-69
2022/05/06 02:21:14;;;;;;;8.25;4.65;;;;;;;7.87;78.45;101507.44;6337800;22;20518;-69
2022/05/06 02:24:31;;;;;;;8.52;5.55;;;;;;;7.90;78.61;101499.56;6318397;22;20071;-69
2022/05/06 02:27:45;;;;;;;6.72;4.82;;;;;;;7.84;78.67;101504.06;6319004;22;20022;-69
2022/05/06 02:34:16;;;;;;;7.60;5.63;;;;;;;7.80;78.42;101505.03;6318281;22;20465;-69
2022/05/06 02:37:23;;;;;;;6.55;5.43;;;;;;;7.78;78.66;101507.66;6319192;22;20018;-69
2022/05/06 02:40:30;;;;;;;12.98;6.10;;;;;;;7.84;78.69;101506.66;6318854;22;20029;-69
2022/05/06 02:43:36;;;;;;;8.05;4.97;;;;;;;7.84;78.45;101511.88;6319188;22;20065;-69
2022/05/06 02:46:39;;;;;;;10.02;5.78;;;;;;;7.84;78.91;101514.47;6318767;22;20396;-69
2022/05/06 02:49:42;;;;;;;;;;;;;;;8.05;78.07;101513.94;6319519;22;20021;-68
2022/05/06 02:52:50;;;;;;;9.35;5.57;;;;;;;8.19;77.54;101515.31;6318358;22;19955;-68
2022/05/06 02:55:54;;;;;;;9.55;5.63;;;;;;;8.02;78.48;101510.56;6317647;22;20388;-69
2022/05/06 02:58:57;;;;;;;;;;;;;;;7.97;78.70;101508.06;6319457;22;20025;-69
2022/05/06 03:02:05;;;;;;;8.88;5.50;;;;;;;7.88;78.89;101514.38;6338181;22;20360;-69
2022/05/06 03:05:10;;;;;;;8.30;5.50;;;;;;;7.95;78.89;101509.88;6317650;22;20342;-69
2022/05/06 03:08:13;;;;;;;9.02;6.10;;;;;;;7.90;78.74;101511.72;6318203;22;20462;-69
2022/05/06 03:11:16;;;;;;;8.13;5.60;;;;;;;7.91;79.10;101505.59;6337760;22;20342;-68
2022/05/06 03:14:27;;;;;;;8.95;6.35;;;;;;;7.90;78.68;101511.72;6319025;22;20085;-68
2022/05/06 03:17:53;;;;;;;6.82;5.95;;;;;;;7.88;79.06;101518.72;6336127;22;20072;-69
2022/05/06 03:20:57;;;;;;;8.18;5.70;;;;;;;7.83;79.23;101510.19;6317355;22;20346;-68
2022/05/06 03:24:01;;;;;;;7.72;6.47;;;;;;;7.91;78.74;101503.88;6336069;22;20022;-69
2022/05/06 03:27:59;;;;;;;6.32;5.72;;;;;;;7.93;78.72;101504.69;6299126;22;20053;-69
2022/05/06 03:30:31;;;;;;;9.07;6.55;;;;;;;8.09;78.35;101507.75;6317304;22;20099;-69
2022/05/06 03:34:16;;;;;;;8.25;6.10;;;;;;;7.95;78.56;101502.06;6337680;22;20064;-69
2022/05/06 03:37:21;;;;;;;11.57;6.88;;;;;;;7.82;79.50;101508.47;6318631;22;20456;-69
2022/05/06 03:40:26;;;;;;;11.02;7.22;;;;;;;7.79;79.89;101508.56;6317362;22;20034;-69
2022/05/06 03:43:31;;;;;;;11.82;7.07;;;;;;;7.80;79.30;101502.44;6337590;22;20026;-68
2022/05/06 03:46:43;;;;;;;9.13;7.20;;;;;;;7.67;79.38;101513.16;6318109;22;20346;-69
2022/05/06 03:51:20;;;;;;;10.13;7.05;;;;;;;7.68;80.00;101512.25;6318499;22;20026;-69
2022/05/06 03:53:13;;;;;;;8.70;6.82;;;;;;;7.60;80.50;101508.16;6317786;22;20021;-68
2022/05/06 03:56:19;;;;;;;13.43;6.90;;;;;;;7.70;80.16;101499.22;6317729;22;20021;-68
2022/05/06 03:59:22;;;;;;;11.68;6.65;;;;;;;7.67;80.41;101515.75;6318709;22;20068;-69
2022/05/06 04:02:36;;;;;;;9.70;7.13;;;;;;;7.76;80.15;101509.47;6318063;22;20037;-69
2022/05/06 04:05:41;;;;;;;9.32;7.10;;;;;;;7.80;80.22;101512.84;6312541;22;20026;-69
2022/05/06 04:08:45;;;;;;;11.43;7.88;;;;;;;7.81;80.23;101518.00;6309186;22;20021;-69
2022/05/06 04:11:50;;;;;;;7.75;6.95;;;;;;;7.95;79.37;101524.66;6314718;22;20090;-69
2022/05/06 04:14:53;;;;;;;9.43;7.80;;;;;;;7.78;79.95;101519.84;6314934;22;20026;-69
2022/05/06 04:17:59;;;;;;;7.80;6.57;;;;;;;7.87;79.59;101522.22;6313785;22;20063;-69
2022/05/06 04:24:26;;;;;;;10.10;7.05;;;;;;;7.33;83.02;101531.31;6312914;22;20021;-69
2022/05/06 04:27:31;;;;;;;14.05;6.72;;;;;;;7.23;83.33;101546.25;6332821;22;20069;-69
2022/05/06 04:30:37;;;;;;;14.57;6.88;;;;;;;7.43;83.03;101547.56;6315209;22;20393;-69
2022/05/06 04:33:48;;;;;;;10.75;7.20;;;;;;;7.42;82.84;101553.66;6314459;22;20037;-69
2022/05/06 04:37:12;;;;;;;8.48;6.53;;;;;;;7.61;81.37;101546.28;6333219;22;20030;-69
2022/05/06 04:40:20;;;;;;;10.27;6.43;;;;;;;7.59;81.19;101558.47;6313196;22;20030;-69
2022/05/06 04:43:23;;;;;;;;;;;;;;;7.73;80.96;101555.56;6313198;22;20037;-69
2022/05/06 04:46:30;;;;;;;7.80;5.45;;;;;;;7.89;80.36;101557.75;6313076;22;20376;-69
2022/05/06 04:49:33;;;;;;;9.18;7.15;;;;;;;7.95;80.28;101566.31;6313904;22;20053;-68
2022/05/06 04:52:37;;;;;;;7.85;7.05;;;;;;;8.11;79.76;101568.50;6313517;22;20058;-69
2022/05/06 04:55:43;;;;;;;8.18;6.95;;;;;;;8.14;79.56;101562.34;6313730;22;20049;-69
2022/05/06 04:58:48;;;;;;;7.72;6.85;;;;;;;8.23;79.06;101566.44;6313866;22;20686;-69
2022/05/06 05:02:37;;;;;;;8.90;7.28;;;;;;;8.35;78.73;101569.59;6333614;22;20022;-69
2022/05/06 05:05:43;;;;;;;9.82;7.07;;;;;;;8.11;79.49;101573.69;6314447;22;20030;-69
2022/05/06 05:08:47;;;;;;;6.93;6.22;;;;;;;8.20;79.89;101576.94;6296149;22;20099;-69
2022/05/06 05:11:52;;;;;;;6.88;6.18;;;;;;;8.32;78.87;101581.84;6313829;22;20029;-69
2022/05/06 05:15:06;;;;;;;9.70;6.72;;;;;;;8.40;78.92;101581.69;6312992;22;20405;-69
2022/05/06 05:18:12;;;;;;;9.10;7.18;;;;;;;8.22;79.21;101577.78;6313731;22;20073;-69
2022/05/06 05:21:16;;;;;;;8.85;7.40;;;;;;;8.15;79.26;101580.53;6313246;22;20339;-69
2022/05/06 05:24:21;;;;;;;9.43;7.30;;;;;;;8.09;79.45;101570.25;6313718;22;20497;-69
2022/05/06 05:27:26;;;;;;;12.40;7.20;;;;;;;8.14;79.65;101585.78;6311752;22;20021;-69
2022/05/06 05:30:31;;;;;;;9.80;7.50;;;;;;;8.10;80.20;101590.22;6318691;22;20024;-69
2022/05/06 05:33:38;;;;;;;9.60;7.75;;;;;;;8.14;80.17;101578.84;6319168;22;20071;-69
2022/05/06 05:36:42;;;;;;;8.57;7.55;;;;;;;8.05;81.20;101581.66;6317443;22;20021;-69
2022/05/06 05:39:46;;;;;;;11.68;8.07;;;;;;;8.03;80.95;101586.03;6318706;22;20529;-69
2022/05/06 05:42:51;;;;;;;9.45;8.07;;;;;;;7.96;81.25;101583.63;6335293;22;20203;-68
2022/05/06 05:49:21;;;;;;;9.27;8.07;;;;;;;8.09;81.22;101598.06;6319413;22;20441;-68
2022/05/06 05:52:25;;;;;;;9.82;7.18;;;;;;;8.25;80.58;101591.56;6319159;22;20473;-69
2022/05/06 05:55:29;;;;;;;8.30;7.20;;;;;;;8.18;81.31;101583.97;6318852;22;20057;-68
2022/05/06 05:58:34;;;;;;;8.95;7.18;;;;;;;8.37;80.53;101590.41;6318585;22;20033;-69
2022/05/06 06:01:41;;;;;;;7.53;6.63;;;;;;;8.44;80.34;101598.97;6318567;22;20069;-69
2022/05/06 06:04:47;;;;;;;9.40;7.07;;;;;;;8.50;80.38;101597.03;6318217;22;20101;-69
2022/05/06 06:07:58;;;;;;;7.00;5.95;;;;;;;8.70;79.43;101606.94;6318829;22;20029;-70
2022/05/06 06:11:18;;;;;;;7.07;6.35;;;;;;;8.87;78.49;101593.44;6317749;22;20037;-70
2022/05/06 06:14:25;;;;;;;7.47;6.00;;;;;;;8.74;79.63;101592.94;6317507;22;20025;-70
2022/05/06 06:21:22;;;;;;;6.57;5.25;;;;;;;9.13;78.63;101591.84;6312144;22;20044;-71
2022/05/06 06:25:14;;;;;;;5.72;4.93;;;;;;;9.28;77.73;101599.19;6316626;22;20101;-71
2022/05/06 06:28:55;;;;;;;9.13;5.68;;;;;;;9.23;77.64;101599.34;6312641;22;20514;-70
2022/05/06 06:32:23;;;;;;;10.25;7.18;;;;;;;9.29;77.96;101593.09;6303478;22;20025;-70
2022/05/06 06:35:29;;;;;;;9.00;6.65;;;;;;;9.45;77.19;101583.91;6312713;22;20094;-70
2022/05/06 06:39:01;;;;;;;6.95;5.72;;;;;;;9.48;77.53;101589.03;6264469;22;20040;-70
2022/05/06 06:42:21;;;;;;;11.90;8.68;;;;;;;9.45;77.61;101585.66;6240140;22;20471;-71
2022/05/06 06:46:13;;;;;;;11.18;9.07;;;;;;;9.71;77.03;101577.84;6216569;22;20024;-68
2022/05/06 06:49:40;;;;;;;11.23;7.95;;;;;;;9.82;76.94;101581.88;6174968;23;20104;-68
2022/05/06 06:53:22;;;;;;;10.77;8.15;;;;;;;10.02;76.59;101577.72;6242667;22;20032;-69
2022/05/06 06:56:28;;;;;;;10.00;6.68;;;;;;;10.15;76.24;101579.94;6172670;23;20050;-67
2022/05/06 06:59:34;;;;;;;8.20;6.88;;;;;;;10.35;75.34;101577.50;6173227;23;20028;-68
2022/05/06 07:02:40;;;;;;;9.43;6.15;;;;;;;10.34;75.33;101580.16;6173353;23;20040;-67
2022/05/06 07:13:45;;;;;;;7.93;4.93;;;;;;;10.69;77.88;101584.19;6183381;22;20345;-68
2022/05/06 07:17:09;;;;;;;8.18;6.07;;;;;;;10.77;77.90;101576.03;6172879;23;20352;-67
2022/05/06 07:20:20;;;;;;;7.28;4.75;;;;;;;10.90;77.67;101586.00;6174053;23;20119;-68
2022/05/06 07:23:39;;;;;;;11.38;5.75;;;;;;;11.02;77.30;101582.09;6174037;23;20078;-67
2022/05/06 07:26:43;;;;;;;6.97;4.72;;;;;;;11.09;76.51;101580.09;6175486;23;20082;-68
2022/05/06 07:30:08;;;;;;;6.28;4.80;;;;;;;11.26;75.86;101571.59;6173605;23;20028;-67
2022/05/06 07:33:13;;;;;;;6.50;4.60;;;;;;;11.39;76.77;101568.47;6173470;23;20360;-68
2022/05/06 07:36:17;;;;;;;5.60;4.05;;;;;;;11.53;76.20;101564.44;6173414;23;20401;-67
2022/05/06 07:39:20;;;;;;;7.78;5.22;;;;;;;11.71;74.39;101561.09;6173486;22;20051;-67
2022/05/06 07:42:25;;;;;;;8.57;4.22;;;;;;;11.89;74.10;101561.28;6174763;23;20070;-68
2022/05/06 07:45:59;;;;;;;4.32;3.22;;;;;;;12.03;71.19;101553.72;6173072;23;20028;-67
2022/05/06 07:49:08;;;;;;;5.55;3.05;;;;;;;12.11;68.71;101554.22;6245273;22;20074;-68
2022/05/06 07:52:21;;;;;;;5.68;2.25;;;;;;;12.25;62.62;101554.50;6173929;23;20509;-68
2022/05/06 07:55:35;;;;;;;4.07;1.92;;;;;;;12.43;63.23;101559.84;6172583;23;20414;-68
2022/05/06 07:58:39;;;;;;;3.97;2.30;;;;;;;12.50;63.88;101546.41;6173454;23;20036;-68
2022/05/06 08:05:05;;;;;;;4.95;2.10;;;;;;;12.64;61.66;101545.81;6250319;22;20040;-67
2022/05/06 08:08:09;;;;;;;6.80;2.00;;;;;;;12.80;60.83;101544.19;6179318;23;20032;-67
2022/05/06 08:11:12;;;;;;;5.43;2.00;;;;;;;12.92;59.95;101549.78;6179856;23;20490;-67
2022/05/06 08:14:16;;;;;;;6.75;2.22;;;;;;;13.06;59.24;101550.03;6179628;23;20062;-67
2022/05/06 08:17:20;;;;;;;4.53;1.92;;;;;;;13.14;59.77;101547.03;6179039;23;20390;-67
2022/05/06 08:20:23;;;;;;;2.80;1.38;;;;;;;13.21;58.55;101544.06;6179402;23;20191;-67
2022/05/06 08:23:31;;;;;;;4.93;1.70;;;;;;;13.32;58.21;101547.97;6179423;23;20669;-67
2022/05/06 08:26:35;;;;;;;6.00;1.38;;;;;;;13.44;57.25;101542.16;6179625;23;20024;-67
2022/05/06 08:29:41;;;;;;;5.57;1.83;;;;;;;13.55;58.21;101539.84;6178715;23;20027;-67
2022/05/06 08:32:45;;;;;;;4.70;1.75;;;;;;;13.70;57.32;101536.47;6179152;23;20027;-67
2022/05/06 08:35:49;;;;;;;5.20;1.48;;;;;;;14.10;55.24;101529.22;6179416;23;20040;-67
2022/05/06 08:38:52;;;;;;;5.28;1.55;;;;;;;14.43;53.70;101523.13;6179109;22;20028;-67
2022/05/06 08:41:59;;;;;;;6.15;1.67;;;;;;;14.48;52.66;101521.09;6178572;23;20055;-68
2022/05/06 08:51:52;;;;;;;4.35;1.30;;;;;;;14.77;51.63;101519.59;6178540;23;20507;-67
2022/05/06 08:54:55;;;;;;;3.78;1.45;;;;;;;14.94;51.85;101512.56;6179449;23;20028;-67
2022/05/06 08:57:59;;;;;;;5.10;1.50;;;;;;;15.04;52.37;101514.59;6179035;23;20055;-68
2022/05/06 09:01:05;;;;;;;4.57;1.35;;;;;;;15.15;51.43;101523.69;6178613;23;20077;-68
2022/05/06 09:04:09;;;;;;;4.10;1.30;;;;;;;15.30;50.53;101512.28;6180279;23;20028;-67
2022/05/06 09:07:20;;;;;;;4.18;1.30;;;;;;;15.31;51.15;101501.66;6180716;23;20406;-68
2022/05/06 09:10:24;;;;;;;6.05;1.20;;;;;;;15.41;50.53;101503.78;6181049;23;20062;-68
2022/05/06 09:13:29;;;;;;;4.35;1.40;;;;;;;15.42;51.07;101503.69;6251010;22;20435;-68
2022/05/06 09:16:41;;;;;;;4.45;1.48;;;;;;;15.81;49.53;101500.56;6179637;23;20024;-67
2022/05/06 09:19:45;;;;;;;3.75;1.27;;;;;;;15.97;49.26;101503.16;6179590;23;20470;-68
2022/05/06 09:22:51;;;;;;;6.80;1.40;;;;;;;16.02;49.19;101503.75;6180965;23;20466;-67
2022/05/06 09:25:56;;;;;;;4.32;1.00;;;;;;;16.07;47.27;101499.97;6180182;23;20082;-68
2022/05/06 09:28:59;;;;;;;3.03;1.05;;;;;;;16.10;47.31;101494.50;6180863;23;20028;-68
2022/05/06 09:32:27;;;;;;;5.38;0.85;;;;;;;16.43;43.62;101481.91;6179116;23;20032;-67
2022/05/06 09:35:31;;;;;;;2.08;0.95;;;;;;;16.28;43.72;101490.75;6180349;23;20460;-68
2022/05/06 09:38:34;;;;;;;4.68;1.10;;;;;;;16.39;43.78;101500.66;6180400;22;20082;-68
2022/05/06 09:41:39;;;;;;;4.60;1.17;;;;;;;16.57;44.38;101496.03;6180807;23;20074;-68
2022/05/06 09:44:47;;;;;;;5.80;1.80;;;;;;;16.62;42.85;101507.16;6252218;22;20028;-68
2022/05/06 09:47:58;;;;;;;3.78;1.25;;;;;;;16.66;42.47;101503.41;6178442;23;20059;-68
2022/05/06 09:51:01;;;;;;;6.90;1.70;;;;;;;16.78;43.16;101492.06;6178738;23;20463;-68
2022/05/06 09:54:05;;;;;;;4.15;1.58;;;;;;;16.80;44.21;101498.13;6179627;23;20458;-68
2022/05/06 09:57:11;;;;;;;4.10;1.05;;;;;;;16.98;46.39;101492.63;6180758;23;20085;-68
2022/05/06 10:00:14;;;;;;;4.95;1.23;;;;;;;17.01;43.32;101500.38;6253012;22;20047;-68
2022/05/06 10:03:18;;;;;;;5.30;1.40;;;;;;;17.04;43.63;101498.38;6180264;23;20278;-68
2022/05/06 10:06:24;;;;;;;4.75;1.13;;;;;;;17.07;43.38;101497.31;6179783;23;20355;-68
2022/05/06 10:09:34;;;;;;;7.38;1.55;;;;;;;17.14;41.97;101491.53;6244577;22;20631;-68
2022/05/06 10:12:44;;;;;;;7.07;1.52;;;;;;;17.17;43.58;101491.34;6174301;23;20403;-68
2022/05/06 10:15:51;;;;;;;6.05;1.40;;;;;;;17.03;43.05;101490.53;6176111;23;20028;-68
2022/05/06 10:18:54;;;;;;;5.75;1.63;;;;;;;17.07;43.81;101484.09;6176048;23;20070;-69
2022/05/06 10:21:58;;;;;;;6.40;1.50;;;;;;;17.40;42.88;101479.28;6248834;22;20028;-69
2022/05/06 10:25:01;;;;;;;4.53;1.30;;;;;;;17.49;42.90;101484.91;6175515;23;20024;-69
2022/05/06 10:35:12;;;;;;;4.95;1.20;;;;;;;17.19;41.80;101470.09;6174952;23;20360;-69
2022/05/06 10:38:21;;;;;;;4.55;1.33;;;;;;;17.48;42.09;101472.63;6173760;22;20025;-69
2022/05/06 10:41:24;;;;;;;3.70;1.38;;;;;;;17.51;41.76;101465.31;6174850;23;20027;-69
2022/05/06 10:44:50;;;;;;;4.72;1.67;;;;;;;17.67;41.65;101455.41;6174910;23;20032;-69
2022/05/06 10:47:54;;;;;;;2.40;1.05;;;;;;;17.68;41.61;101458.94;6174834;23;20023;-69
2022/05/06 10:51:26;;;;;;;8.60;1.42;;;;;;;17.80;40.43;101455.47;6245716;22;20227;-69
2022/05/06 10:54:29;;;;;;;4.13;1.30;;;;;;;17.87;40.25;101459.41;6174965;23;20027;-69
2022/05/06 10:57:48;;;;;;;2.60;1.10;;;;;;;17.96;40.07;101455.28;6173822;23;20078;-69
2022/05/06 11:00:59;;;;;;;2.80;1.02;;;;;;;17.90;41.10;101455.72;6175600;23;20028;-69
2022/05/06 11:04:02;;;;;;;2.78;1.00;;;;;;;17.97;41.45;101450.84;6175420;23;20357;-69
2022/05/06 11:07:12;;;;;;;12.50;1.45;;;;;;;18.13;38.38;101451.47;6173259;23;20025;-69
2022/05/06 11:10:19;;;;;;;5.28;1.25;;;;;;;18.16;39.98;101453.91;6175275;23;20026;-69
2022/05/06 11:13:24;;;;;;;4.97;1.48;;;;;;;18.45;40.06;101451.03;6175461;23;20032;-69
2022/05/06 11:16:27;;;;;;;7.07;1.58;;;;;;;18.53;39.06;101449.50;6175134;23;20023;-69
2022/05/06 11:19:34;;;;;;;7.70;1.13;;;;;;;18.53;39.72;101438.91;6174913;23;20023;-69
2022/05/06 11:22:39;;;;;;;4.45;1.17;;;;;;;18.69;38.82;101443.13;6173235;23;20459;-69
2022/05/06 11:25:50;;;;;;;2.72;0.95;;;;;;;18.91;39.10;101429.19;6173624;23;20024;-70
2022/05/06 11:29:04;;;;;;;3.63;1.13;;;;;;;18.96;39.04;101427.91;6174024;23;20097;-69
2022/05/06 11:32:10;;;;;;;8.35;1.83;;;;;;;19.00;38.44;101420.59;6172221;23;20093;-69
2022/05/06 11:35:19;;;;;;;5.88;2.00;;;;;;;19.01;38.93;101424.91;6173870;23;20082;-69
2022/05/06 11:38:32;;;;;;;6.07;0.90;;;;;;;19.29;39.37;101419.25;6173593;22;20048;-69
2022/05/06 11:41:36;;;;;;;3.85;1.30;;;;;;;19.18;37.30;101413.09;6173448;23;20463;-69
2022/05/06 11:48:08;;;;;;;5.13;1.25;;;;;;;19.21;37.06;101412.84;6202597;22;20059;-69
2022/05/06 11:51:17;;;;;;;2.88;1.08;;;;;;;19.20;35.87;101406.69;6178120;23;20049;-69
2022/05/06 11:54:20;;;;;;;4.47;0.90;;;;;;;19.29;36.31;101400.69;6179754;23;20364;-69
2022/05/06 11:57:23;;;;;;;3.13;0.90;;;;;;;19.43;35.21;101397.03;6180014;23;20024;-69
2022/05/06 12:00:29;;;;;;;5.90;0.90;;;;;;;19.49;36.28;101395.69;6180385;23;20400;-69
2022/05/06 12:03:34;;;;;;;7.30;1.40;;;;;;;19.49;35.84;101393.03;6179711;23;20044;-69
2022/05/06 12:06:41;;;;;;;6.55;1.42;;;;;;;19.38;35.53;101387.72;6179081;23;20025;-69
2022/05/06 12:09:45;;;;;;;2.47;1.00;;;;;;;19.57;36.77;101382.69;6179667;23;20052;-69
2022/05/06 12:12:59;;;;;;;2.85;0.70;;;;;;;19.71;36.20;101377.19;6179451;23;20395;-69
2022/05/06 12:16:07;;;;;;;2.97;0.82;;;;;;;19.83;35.45;101377.22;6179934;23;20471;-69
2022/05/06 12:19:10;;;;;;;5.05;0.93;;;;;;;19.89;35.17;101379.41;6179834;23;20075;-69
2022/05/06 12:22:20;;;;;;;6.53;0.98;;;;;;;20.08;34.45;101387.63;6180186;23;20023;-69
2022/05/06 12:25:24;;;;;;;3.20;1.15;;;;;;;19.74;33.84;101371.66;6180078;23;20024;-69
2022/05/06 12:28:28;;;;;;;2.50;0.80;;;;;;;20.14;34.51;101373.00;6175699;23;20600;-69
2022/05/06 12:31:33;;;;;;;3.05;0.68;;;;;;;20.36;34.01;101369.50;6174013;23;20055;-69
2022/05/06 12:34:37;;;;;;;1.83;0.68;;;;;;;20.71;33.49;101368.47;6172613;23;20110;-70
2022/05/06 12:37:54;;;;;;;3.40;1.17;;;;;;;20.74;32.59;101362.91;6177020;23;20023;-69
2022/05/06 12:40:57;;;;;;;2.10;0.80;;;;;;;21.22;32.92;101362.47;6149175;23;20054;-69
2022/05/06 12:44:36;;;;;;;8.55;0.70;;;;;;;21.47;32.67;101367.41;6150696;23;20025;-69
2022/05/06 12:51:03;;;;;;;3.13;0.90;;;;;;;22.13;30.51;101366.22;6222878;22;20028;-69
2022/05/06 12:54:10;;;;;;;2.45;1.13;;;;;;;22.51;30.92;101355.69;6150240;23;20039;-69
2022/05/06 12:57:14;;;;;;;4.43;0.75;;;;;;;22.74;29.91;101360.78;6150663;23;20075;-69
2022/05/06 13:00:17;;;;;;;3.42;0.70;;;;;;;22.89;29.87;101354.06;6150470;23;20028;-69
2022/05/06 13:03:20;;;;;;;2.20;0.82;;;;;;;23.11;28.86;101347.63;6150413;23;20025;-69
2022/05/06 13:06:24;;;;;;;3.28;1.10;;;;;;;23.19;29.29;101349.56;6150084;23;20109;-69
2022/05/06 13:09:27;;;;;;;4.28;1.20;;;;;;;23.31;28.77;101345.75;6151334;23;20060;-69
2022/05/06 13:12:31;;;;;;;7.57;0.80;;;;;;;23.37;28.05;101353.19;6152011;23;20024;-69
2022/05/06 13:15:34;;;;;;;3.95;0.82;;;;;;;23.14;28.53;101338.50;6151800;23;20029;-69
2022/05/06 13:18:40;;;;;;;9.80;1.38;;;;;;;23.54;29.50;101340.09;6151806;23;20060;-69
2022/05/06 13:21:44;;;;;;;4.22;0.80;;;;;;;23.72;27.72;101349.06;6151929;23;20024;-69
2022/05/06 13:24:48;;;;;;;2.67;0.88;;;;;;;24.13;27.20;101334.41;6151596;23;20483;-69
2022/05/06 13:27:51;;;;;;;5.55;0.73;;;;;;;24.16;27.36;101332.44;6151900;23;20091;-69
2022/05/06 13:30:55;;;;;;;3.05;0.73;;;;;;;24.44;26.19;101323.44;6151615;23;20330;-69
2022/05/06 13:34:01;;;;;;;4.13;1.10;;;;;;;24.68;25.53;101333.53;6151569;23;20048;-69
2022/05/06 13:37:08;;;;;;;2.90;0.77;;;;;;;25.33;25.66;101329.72;6220528;22;20100;-69
2022/05/06 13:40:11;;;;;;;3.53;0.82;;;;;;;25.69;25.22;101327.78;6151994;23;20029;-69
2022/05/06 13:43:16;;;;;;;2.33;0.95;;;;;;;25.59;25.32;101325.22;6151453;23;20024;-69
2022/05/06 13:46:20;;;;;;;4.10;0.70;;;;;;;26.70;23.63;101318.94;6149742;23;20024;-69
2022/05/06 13:49:23;;;;;;;5.05;1.00;;;;;;;26.82;22.58;101310.38;6150976;23;20039;-69
2022/05/06 13:52:28;;;;;;;3.92;1.20;;;;;;;28.67;21.51;101310.13;6150150;23;20051;-69
2022/05/06 13:59:11;;;;;;;2.95;0.82;;;;;;;32.76;17.26;101286.59;6151282;23;20020;-70
2022/05/06 14:02:15;;;;;;;4.63;1.10;;;;;;;34.82;15.12;101285.84;6151055;23;20784;-70
2022/05/06 14:05:19;;;;;;;4.18;0.60;;;;;;;27.64;20.73;101301.41;6150651;23;20056;-70
2022/05/06 14:08:23;;;;;;;2.35;0.70;;;;;;;29.28;20.04;101291.28;6151223;23;20078;-70
2022/05/06 14:11:26;;;;;;;1.80;0.57;;;;;;;26.36;22.91;101285.03;6151629;23;20025;-69
2022/05/06 14:14:30;;;;;;;1.63;0.55;;;;;;;24.55;25.68;101299.16;6151591;23;20028;-69
2022/05/06 14:17:33;;;;;;;1.60;0.75;;;;;;;23.73;27.09;101308.03;6149571;23;20066;-69
2022/05/06 14:20:37;;;;;;;4.32;1.13;;;;;;;24.80;25.52;101297.53;6149112;23;20029;-70
2022/05/06 14:23:41;;;;;;;2.15;0.65;;;;;;;26.98;22.56;101285.41;6148328;23;20701;-70
2022/05/06 14:26:44;;;;;;;5.78;0.82;;;;;;;24.56;26.17;101294.63;6150126;23;20794;-70
2022/05/06 14:29:48;;;;;;;3.17;1.30;;;;;;;24.06;26.80;101289.75;6149940;23;20399;-70
2022/05/06 14:32:51;;;;;;;2.63;0.57;;;;;;;24.02;26.81;101286.50;6149957;23;20392;-70
2022/05/06 14:35:55;;;;;;;2.58;1.02;;;;;;;24.51;25.01;101287.09;6150183;23;20076;-70
2022/05/06 14:38:59;;;;;;;3.70;0.80;;;;;;;24.16;24.79;101282.50;6166072;22;20447;-67
2022/05/06 14:42:03;;;;;;;4.95;0.90;;;;;;;29.55;19.71;101270.13;6252544;22;20356;-67
2022/05/06 14:45:08;;;;;;;4.82;0.95;;;;;;;27.55;22.63;101268.38;6173620;23;20024;-69
2022/05/06 14:48:12;;;;;;;3.55;0.90;;;;;;;30.22;19.47;101267.25;6178693;23;20028;-68
2022/05/06 14:51:16;;;;;;;7.45;1.00;;;;;;;32.52;17.91;101259.13;6179294;23;20522;-68
2022/05/06 14:54:19;;;;;;;9.73;1.33;;;;;;;33.69;16.29;101259.38;6179930;23;20028;-69
2022/05/06 14:57:22;;;;;;;7.13;1.00;;;;;;;32.53;16.14;101260.78;6179916;23;20046;-69
2022/05/06 15:00:28;;;;;;;3.25;0.80;;;;;;;32.82;15.84;101264.09;6179871;23;20027;-69
2022/05/06 15:03:31;;;;;;;2.40;0.95;;;;;;;32.75;15.90;101260.56;6252018;22;20031;-69
2022/05/06 15:06:35;;;;;;;2.67;0.63;;;;;;;30.67;17.19;101257.09;6179447;23;20024;-69
2022/05/06 15:09:38;;;;;;;3.50;0.80;;;;;;;28.29;20.27;101252.72;6180607;23;20055;-69
2022/05/06 15:12:42;;;;;;;7.95;0.93;;;;;;;25.82;22.85;101260.41;6180690;23;20451;-69
2022/05/06 15:15:45;;;;;;;3.35;0.82;;;;;;;24.80;25.00;101259.25;6179857;23;20043;-69
2022/05/06 15:22:12;;;;;;;7.25;0.95;;;;;;;23.50;28.89;101267.47;6180166;23;20073;-68
2022/05/06 15:25:15;;;;;;;3.92;1.48;;;;;;;23.01;30.34;101271.28;6180563;23;20027;-68
2022/05/06 15:28:18;;;;;;;2.08;0.63;;;;;;;23.45;29.58;101267.06;6180158;23;20405;-68
2022/05/06 15:31:22;;;;;;;5.32;0.70;;;;;;;22.70;31.39;101260.75;6180331;23;20028;-68
2022/05/06 15:34:26;;;;;;;4.95;1.30;;;;;;;22.39;33.95;101262.69;6252354;22;20452;-68